createdAt,value
2018-08-16T00:00:32.228Z,6.13
2018-08-16T00:02:59.605Z,5.50
2018-08-16T00:05:26.994Z,5.93
2018-08-16T00:07:54.349Z,6.30
2018-08-16T00:10:21.709Z,6.20
2018-08-16T00:12:49.701Z,6.50
2018-08-16T00:15:18.113Z,6.70
2018-08-16T00:17:45.522Z,6.37
2018-08-16T00:20:13.033Z,6.83
2018-08-16T00:22:40.496Z,7.80
2018-08-16T00:25:08.768Z,6.10
2018-08-16T00:27:36.133Z,6.23
2018-08-16T00:30:05.632Z,6.00
2018-08-16T00:32:32.948Z,6.27
2018-08-16T00:35:00.237Z,6.73
2018-08-16T00:37:27.582Z,6.83
2018-08-16T00:39:54.925Z,6.30
2018-08-16T00:42:22.272Z,6.77
2018-08-16T00:44:49.594Z,6.80
2018-08-16T00:47:16.924Z,6.43
2018-08-16T00:49:44.289Z,5.77
2018-08-16T00:52:11.617Z,6.03
2018-08-16T00:54:38.941Z,6.03
2018-08-16T00:57:06.252Z,5.60
2018-08-16T00:59:33.560Z,6.33
2018-08-16T01:02:00.849Z,6.97
2018-08-16T01:04:28.153Z,6.33
2018-08-16T01:06:55.569Z,6.43
2018-08-16T01:09:22.798Z,5.90
2018-08-16T01:11:50.053Z,6.37
2018-08-16T01:14:17.307Z,6.60
2018-08-16T01:16:44.547Z,6.70
2018-08-16T01:19:11.891Z,6.50
2018-08-16T01:21:39.126Z,6.13
2018-08-16T01:24:06.908Z,5.23
2018-08-16T01:26:34.194Z,7.50
2018-08-16T01:29:01.488Z,5.63
2018-08-16T01:31:28.896Z,6.57
2018-08-16T01:33:56.198Z,6.27
2018-08-16T01:36:23.472Z,6.30
2018-08-16T01:38:50.741Z,6.70
2018-08-16T01:41:18.040Z,6.13
2018-08-16T01:43:45.353Z,7.00
2018-08-16T01:46:12.648Z,6.07
2018-08-16T01:48:39.921Z,6.17
2018-08-16T01:51:07.317Z,6.50
2018-08-16T01:53:34.600Z,6.20
2018-08-16T01:56:01.969Z,6.13
2018-08-16T01:58:29.305Z,5.80
2018-08-16T02:00:56.573Z,6.40
2018-08-16T02:03:23.880Z,7.10
2018-08-16T02:05:51.141Z,7.00
2018-08-16T02:08:18.446Z,6.50
2018-08-16T02:10:45.732Z,6.73
2018-08-16T02:13:13.021Z,6.33
2018-08-16T02:15:40.336Z,6.43
2018-08-16T02:18:07.790Z,7.23
2018-08-16T02:20:35.090Z,6.00
2018-08-16T02:23:02.376Z,6.40
2018-08-16T02:25:29.596Z,7.17
2018-08-16T02:27:56.865Z,7.03
2018-08-16T02:30:24.133Z,6.60
2018-08-16T02:32:51.393Z,7.17
2018-08-16T02:35:18.636Z,7.60
2018-08-16T02:37:45.920Z,7.70
2018-08-16T02:40:13.165Z,6.37
2018-08-16T02:42:40.385Z,6.60
2018-08-16T02:45:07.657Z,6.67
2018-08-16T02:47:34.912Z,6.67
2018-08-16T02:50:02.133Z,6.43
2018-08-16T02:52:29.380Z,6.70
2018-08-16T02:54:56.615Z,6.80
2018-08-16T02:57:23.865Z,6.30
2018-08-16T02:59:51.119Z,6.17
2018-08-16T03:02:18.392Z,6.90
2018-08-16T03:04:45.649Z,7.53
2018-08-16T03:07:12.992Z,7.57
2018-08-16T03:09:40.227Z,7.40
2018-08-16T03:12:09.266Z,7.87
2018-08-16T03:14:36.517Z,7.40
2018-08-16T03:17:03.769Z,7.80
2018-08-16T03:19:31.012Z,7.23
2018-08-16T03:21:58.296Z,7.30
2018-08-16T03:24:25.588Z,6.97
2018-08-16T03:26:52.845Z,7.30
2018-08-16T03:29:20.113Z,6.80
2018-08-16T03:31:47.348Z,6.93
2018-08-16T03:34:14.612Z,8.43
2018-08-16T03:36:41.856Z,7.27
2018-08-16T03:39:09.250Z,6.70
2018-08-16T03:41:36.825Z,7.17
2018-08-16T03:44:04.336Z,6.73
2018-08-16T03:46:31.612Z,8.87
2018-08-16T03:48:58.878Z,7.10
2018-08-16T03:51:26.148Z,6.53
2018-08-16T03:53:53.404Z,8.20
2018-08-16T03:56:20.768Z,7.40
2018-08-16T03:58:48.025Z,7.90
2018-08-16T04:01:15.359Z,7.33
2018-08-16T04:03:42.689Z,7.70
2018-08-16T04:06:10.002Z,7.50
2018-08-16T04:08:37.285Z,6.97
2018-08-16T04:11:04.584Z,7.20
2018-08-16T04:13:31.876Z,7.30
2018-08-16T04:15:59.148Z,7.20
2018-08-16T04:18:26.409Z,6.60
2018-08-16T04:20:53.705Z,7.73
2018-08-16T04:23:20.957Z,7.70
2018-08-16T04:25:48.226Z,7.80
2018-08-16T04:28:15.448Z,8.20
2018-08-16T04:30:42.688Z,6.83
2018-08-16T04:33:09.916Z,7.00
2018-08-16T04:35:37.189Z,7.07
2018-08-16T04:38:04.441Z,8.10
2018-08-16T04:40:31.688Z,8.10
2018-08-16T04:42:58.930Z,8.00
2018-08-16T04:45:26.213Z,6.40
2018-08-16T04:47:53.491Z,7.77
2018-08-16T04:50:20.756Z,7.43
2018-08-16T04:52:47.997Z,7.70
2018-08-16T04:55:15.318Z,6.70
2018-08-16T04:57:42.536Z,6.53
2018-08-16T05:00:11.268Z,6.80
2018-08-16T05:02:38.864Z,7.20
2018-08-16T05:05:06.416Z,6.53
2018-08-16T05:07:33.641Z,8.57
2018-08-16T05:10:00.900Z,7.70
2018-08-16T05:12:28.186Z,7.93
2018-08-16T05:14:55.396Z,7.50
2018-08-16T05:17:22.744Z,7.30
2018-08-16T05:19:49.940Z,7.07
2018-08-16T05:22:17.244Z,6.57
2018-08-16T05:24:44.584Z,6.13
2018-08-16T05:27:11.871Z,5.50
2018-08-16T05:29:39.212Z,5.90
2018-08-16T05:32:06.504Z,6.33
2018-08-16T05:34:33.764Z,6.47
2018-08-16T05:37:01.165Z,6.60
2018-08-16T05:39:28.434Z,6.13
2018-08-16T05:41:55.693Z,8.10
2018-08-16T05:44:22.956Z,7.40
2018-08-16T05:46:50.301Z,8.07
2018-08-16T05:49:17.568Z,9.10
2018-08-16T05:51:44.860Z,8.83
2018-08-16T05:54:12.145Z,8.70
2018-08-16T05:56:39.452Z,9.17
2018-08-16T05:59:06.740Z,9.63
2018-08-16T06:01:34.132Z,9.27
2018-08-16T06:04:01.381Z,9.33
2018-08-16T06:06:28.684Z,10.17
2018-08-16T06:08:55.940Z,10.90
2018-08-16T06:11:23.241Z,11.93
2018-08-16T06:13:50.529Z,10.97
2018-08-16T06:16:17.805Z,11.23
2018-08-16T06:18:45.081Z,11.20
2018-08-16T06:21:12.461Z,10.80
2018-08-16T06:23:39.728Z,10.60
2018-08-16T06:26:07.013Z,9.73
2018-08-16T06:28:34.291Z,10.70
2018-08-16T06:31:01.542Z,11.20
2018-08-16T06:33:28.961Z,9.93
2018-08-16T06:35:56.231Z,10.90
2018-08-16T06:38:23.492Z,10.70
2018-08-16T06:40:50.840Z,9.90
2018-08-16T06:43:18.118Z,11.00
2018-08-16T06:45:45.392Z,10.00
2018-08-16T06:48:12.675Z,11.07
2018-08-16T06:50:39.924Z,10.90
2018-08-16T06:53:07.309Z,9.40
2018-08-16T06:55:34.535Z,10.40
2018-08-16T06:58:01.769Z,9.87
2018-08-16T07:00:29.029Z,7.93
2018-08-16T07:02:56.329Z,11.60
2018-08-16T07:05:23.600Z,10.93
2018-08-16T07:07:50.873Z,11.67
2018-08-16T07:10:18.141Z,10.00
2018-08-16T07:12:45.536Z,11.40
2018-08-16T07:15:14.140Z,11.40
2018-08-16T07:17:42.164Z,11.10
2018-08-16T07:20:09.500Z,11.67
2018-08-16T07:22:36.844Z,12.10
2018-08-16T07:25:04.628Z,11.73
2018-08-16T07:27:31.979Z,11.33
2018-08-16T07:29:59.865Z,10.93
2018-08-16T07:32:27.212Z,11.10
2018-08-16T07:34:54.462Z,10.43
2018-08-16T07:37:21.760Z,9.90
2018-08-16T07:39:49.036Z,9.40
2018-08-16T07:42:16.384Z,9.20
2018-08-16T07:44:43.668Z,8.57
2018-08-16T07:47:10.956Z,8.60
2018-08-16T07:49:38.354Z,7.90
2018-08-16T07:52:05.644Z,8.73
2018-08-16T07:54:32.899Z,8.47
2018-08-16T07:57:00.232Z,9.20
2018-08-16T07:59:27.532Z,8.97
2018-08-16T08:01:54.784Z,8.57
2018-08-16T08:04:22.028Z,8.70
2018-08-16T08:06:49.320Z,8.50
2018-08-16T08:09:16.635Z,8.27
2018-08-16T08:11:43.836Z,7.43
2018-08-16T08:14:11.068Z,7.30
2018-08-16T08:16:38.296Z,7.73
2018-08-16T08:19:05.592Z,8.13
2018-08-16T08:21:32.865Z,7.57
2018-08-16T08:24:00.212Z,7.03
2018-08-16T08:26:27.486Z,7.27
2018-08-16T08:28:54.804Z,7.10
2018-08-16T08:31:22.165Z,6.60
2018-08-16T08:33:49.466Z,7.17
2018-08-16T08:36:28.373Z,6.53
2018-08-16T08:38:55.841Z,6.00
2018-08-16T08:41:23.075Z,6.03
2018-08-16T08:44:04.749Z,6.13
2018-08-16T08:46:32.020Z,7.20
2018-08-16T08:48:59.306Z,6.93
2018-08-16T08:51:26.624Z,6.27
2018-08-16T08:54:06.433Z,6.10
2018-08-16T08:56:45.384Z,6.57
2018-08-16T08:59:12.781Z,6.00
2018-08-16T09:01:40.096Z,5.87
2018-08-16T09:04:07.384Z,5.23
2018-08-16T09:06:34.656Z,5.90
2018-08-16T09:09:01.964Z,5.37
2018-08-16T09:11:40.732Z,5.57
2018-08-16T09:15:20.815Z,6.00
2018-08-16T09:17:48.056Z,5.90
2018-08-16T09:22:40.663Z,5.23
2018-08-16T09:25:07.934Z,6.00
2018-08-16T09:27:35.148Z,5.27
2018-08-16T09:30:16.333Z,7.53
2018-08-16T09:32:55.064Z,5.10
2018-08-16T09:35:22.538Z,5.53
2018-08-16T09:37:49.837Z,5.47
2018-08-16T09:40:17.179Z,5.17
2018-08-16T09:42:44.514Z,5.13
2018-08-16T09:45:23.373Z,4.50
2018-08-16T09:48:02.134Z,4.67
2018-08-16T09:50:29.388Z,5.40
2018-08-16T09:52:56.637Z,5.50
2018-08-16T09:55:23.889Z,4.77
2018-08-16T09:57:51.233Z,4.77
2018-08-16T10:00:23.062Z,5.03
2018-08-16T10:02:50.314Z,5.47
2018-08-16T10:05:17.624Z,3.93
2018-08-16T10:07:44.984Z,4.53
2018-08-16T10:10:12.233Z,4.07
2018-08-16T10:12:39.589Z,4.33
2018-08-16T10:15:07.084Z,7.63
2018-08-16T10:17:34.342Z,4.63
2018-08-16T10:20:01.588Z,4.00
2018-08-16T10:22:28.935Z,3.67
2018-08-16T10:24:56.193Z,3.90
2018-08-16T10:27:23.539Z,4.10
2018-08-16T10:29:50.927Z,3.90
2018-08-16T10:32:18.289Z,4.70
2018-08-16T10:34:45.690Z,4.00
2018-08-16T10:37:13.150Z,4.53
2018-08-16T10:39:40.512Z,4.90
2018-08-16T10:42:07.971Z,4.00
2018-08-16T10:44:35.432Z,4.27
2018-08-16T10:47:02.657Z,5.30
2018-08-16T10:49:30.188Z,5.07
2018-08-16T10:51:57.637Z,4.90
2018-08-16T10:54:25.092Z,4.70
2018-08-16T10:56:52.452Z,5.30
2018-08-16T10:59:19.845Z,5.10
2018-08-16T11:01:47.269Z,4.97
2018-08-16T11:04:14.617Z,4.67
2018-08-16T11:06:42.014Z,4.17
2018-08-16T11:09:09.669Z,5.80
2018-08-16T11:11:37.568Z,4.30
2018-08-16T11:14:04.881Z,4.40
2018-08-16T11:16:32.200Z,4.93
2018-08-16T11:18:59.572Z,4.60
2018-08-16T11:21:26.870Z,4.50
2018-08-16T11:23:54.233Z,4.20
2018-08-16T11:26:21.509Z,4.53
2018-08-16T11:28:48.824Z,4.57
2018-08-16T11:31:16.137Z,3.33
2018-08-16T11:33:43.427Z,4.03
2018-08-16T11:36:10.708Z,5.20
2018-08-16T11:38:37.996Z,4.87
2018-08-16T11:41:05.293Z,5.93
2018-08-16T11:43:32.566Z,6.53
2018-08-16T11:45:59.856Z,10.53
2018-08-16T11:48:27.097Z,7.23
2018-08-16T11:50:54.340Z,12.13
2018-08-16T11:53:21.586Z,5.33
2018-08-16T11:55:48.802Z,3.83
2018-08-16T11:58:16.070Z,3.70
2018-08-16T12:00:43.456Z,4.20
2018-08-16T12:03:10.741Z,4.27
2018-08-16T12:05:37.972Z,4.27
2018-08-16T12:08:05.296Z,3.63
2018-08-16T12:10:32.636Z,3.90
2018-08-16T12:12:59.865Z,3.97
2018-08-16T12:15:27.140Z,3.53
2018-08-16T12:17:54.385Z,3.60
2018-08-16T12:20:21.600Z,3.40
2018-08-16T12:22:48.841Z,16.53
2018-08-16T12:25:16.065Z,4.33
2018-08-16T12:27:43.317Z,4.03
2018-08-16T12:30:10.588Z,3.97
2018-08-16T12:32:37.918Z,3.57
2018-08-16T12:35:06.059Z,3.87
2018-08-16T12:37:33.385Z,3.97
2018-08-16T12:40:00.658Z,3.90
2018-08-16T12:42:27.902Z,3.37
2018-08-16T12:44:55.165Z,3.60
2018-08-16T12:47:22.425Z,4.27
2018-08-16T12:49:49.657Z,3.70
2018-08-16T12:52:16.988Z,3.40
2018-08-16T12:54:44.241Z,3.43
2018-08-16T12:57:11.472Z,3.50
2018-08-16T12:59:38.716Z,3.90
2018-08-16T13:02:06.013Z,4.67
2018-08-16T13:04:33.249Z,3.93
2018-08-16T13:07:00.538Z,3.87
2018-08-16T13:09:27.833Z,4.50
2018-08-16T13:11:55.110Z,3.33
2018-08-16T13:14:22.514Z,9.43
2018-08-16T13:16:49.792Z,4.53
2018-08-16T13:19:17.122Z,3.80
2018-08-16T13:21:44.405Z,3.73
2018-08-16T13:24:11.654Z,3.33
2018-08-16T13:26:39.005Z,3.80
2018-08-16T13:29:06.313Z,3.33
2018-08-16T13:31:33.584Z,3.40
2018-08-16T13:34:00.857Z,3.50
2018-08-16T13:36:28.129Z,5.23
2018-08-16T13:38:55.388Z,3.30
2018-08-16T13:41:22.676Z,3.60
2018-08-16T13:43:49.949Z,3.70
2018-08-16T13:46:17.272Z,4.43
2018-08-16T13:48:44.567Z,3.40
2018-08-16T13:51:11.792Z,3.90
2018-08-16T13:53:39.033Z,3.87
2018-08-16T13:56:06.288Z,3.70
2018-08-16T13:58:33.553Z,4.20
2018-08-16T14:01:00.799Z,3.50
2018-08-16T14:03:28.059Z,3.50
2018-08-16T14:05:55.308Z,3.90
2018-08-16T14:08:22.524Z,3.80
2018-08-16T14:10:50.776Z,3.30
2018-08-16T14:13:18.706Z,3.90
2018-08-16T14:15:45.914Z,3.10
2018-08-16T14:18:14.831Z,3.57
2018-08-16T14:20:42.089Z,3.80
2018-08-16T14:23:09.682Z,3.93
2018-08-16T14:25:37.008Z,2.87
2018-08-16T14:28:04.525Z,3.73
2018-08-16T14:30:31.841Z,3.70
2018-08-16T14:32:59.269Z,3.80
2018-08-16T14:35:26.513Z,3.30
2018-08-16T14:37:53.752Z,3.13
2018-08-16T14:40:21.173Z,3.33
2018-08-16T14:42:48.552Z,3.30
2018-08-16T14:45:15.828Z,3.27
2018-08-16T14:47:43.089Z,3.10
2018-08-16T14:50:10.373Z,3.60
2018-08-16T14:52:38.780Z,3.80
2018-08-16T14:55:06.289Z,3.40
2018-08-16T14:57:33.532Z,3.50
2018-08-16T15:00:02.030Z,3.30
2018-08-16T15:02:29.369Z,3.33
2018-08-16T15:04:56.632Z,3.03
2018-08-16T15:07:23.894Z,3.60
2018-08-16T15:09:51.165Z,2.97
2018-08-16T15:12:18.432Z,3.50
2018-08-16T15:14:45.761Z,3.33
2018-08-16T15:17:13.140Z,3.60
2018-08-16T15:19:40.428Z,3.47
2018-08-16T15:22:08.316Z,3.30
2018-08-16T15:24:35.627Z,4.40
2018-08-16T15:27:02.896Z,3.20
2018-08-16T15:29:30.236Z,3.13
2018-08-16T15:31:57.548Z,3.07
2018-08-16T15:34:24.833Z,3.20
2018-08-16T15:36:52.120Z,2.97
2018-08-16T15:39:19.426Z,3.80
2018-08-16T15:41:46.730Z,3.00
2018-08-16T15:44:13.980Z,3.17
2018-08-16T15:46:41.221Z,2.97
2018-08-16T15:49:08.524Z,3.53
2018-08-16T15:51:35.803Z,2.87
2018-08-16T15:54:03.077Z,3.10
2018-08-16T15:56:30.321Z,3.10
2018-08-16T15:58:57.557Z,3.67
2018-08-16T16:01:24.909Z,3.07
2018-08-16T16:03:52.163Z,3.20
2018-08-16T16:06:19.499Z,3.30
2018-08-16T16:08:46.731Z,3.53
2018-08-16T16:11:13.980Z,3.87
2018-08-16T16:13:41.322Z,3.23
2018-08-16T16:16:08.622Z,3.23
2018-08-16T16:18:35.840Z,2.70
2018-08-16T16:21:03.839Z,3.17
2018-08-16T16:23:31.161Z,2.80
2018-08-16T16:25:58.533Z,3.37
2018-08-16T16:28:25.793Z,3.90
2018-08-16T16:30:53.124Z,3.40
2018-08-16T16:33:20.376Z,3.33
2018-08-16T16:35:48.412Z,3.30
2018-08-16T16:38:15.851Z,3.33
2018-08-16T16:40:43.094Z,3.03
2018-08-16T16:43:10.388Z,3.30
2018-08-16T16:45:37.601Z,3.47
2018-08-16T16:48:05.140Z,3.10
2018-08-16T16:50:32.453Z,3.10
2018-08-16T16:52:59.920Z,3.17
2018-08-16T16:55:27.358Z,2.67
2018-08-16T16:57:54.625Z,3.53
2018-08-16T17:00:21.956Z,2.97
2018-08-16T17:02:49.256Z,2.90
2018-08-16T17:05:16.496Z,3.87
2018-08-16T17:07:43.773Z,3.53
2018-08-16T17:10:11.949Z,3.83
2018-08-16T17:12:39.747Z,3.67
2018-08-16T17:15:07.531Z,3.57
2018-08-16T17:17:34.899Z,3.90
2018-08-16T17:20:02.288Z,3.93
2018-08-16T17:22:29.588Z,3.90
2018-08-16T17:24:56.867Z,3.57
2018-08-16T17:27:24.165Z,3.10
2018-08-16T17:29:51.453Z,3.13
2018-08-16T17:32:18.728Z,3.20
2018-08-16T17:34:46.000Z,2.93
2018-08-16T17:37:13.296Z,3.57
2018-08-16T17:39:40.697Z,3.33
2018-08-16T17:42:08.053Z,3.57
2018-08-16T17:44:35.408Z,3.40
2018-08-16T17:47:02.697Z,3.60
2018-08-16T17:49:29.952Z,3.70
2018-08-16T17:51:57.319Z,2.90
2018-08-16T17:54:24.598Z,4.10
2018-08-16T17:56:51.868Z,4.43
2018-08-16T17:59:19.180Z,3.67
2018-08-16T18:01:46.436Z,3.70
2018-08-16T18:04:13.740Z,4.33
2018-08-16T18:06:41.172Z,3.90
2018-08-16T18:09:08.548Z,3.57
2018-08-16T18:11:35.856Z,3.90
2018-08-16T18:14:03.201Z,3.90
2018-08-16T18:16:30.549Z,3.67
2018-08-16T18:18:57.852Z,4.50
2018-08-16T18:21:25.128Z,3.40
2018-08-16T18:23:52.562Z,3.60
2018-08-16T18:26:19.956Z,4.30
2018-08-16T18:28:47.669Z,4.30
2018-08-16T18:31:14.965Z,3.60
2018-08-16T18:33:42.336Z,4.33
2018-08-16T18:36:09.712Z,4.03
2018-08-16T18:38:37.145Z,4.00
2018-08-16T18:41:04.629Z,3.50
2018-08-16T18:43:31.896Z,3.80
2018-08-16T18:45:59.208Z,3.47
2018-08-16T18:48:26.520Z,3.23
2018-08-16T18:50:53.820Z,4.30
2018-08-16T18:53:21.081Z,3.47
2018-08-16T18:55:48.353Z,3.80
2018-08-16T18:58:15.604Z,3.80
2018-08-16T19:00:42.986Z,3.93
2018-08-16T19:03:10.292Z,3.67
2018-08-16T19:05:37.667Z,4.67
2018-08-16T19:08:04.968Z,4.10
2018-08-16T19:10:32.279Z,3.70
2018-08-16T19:12:59.716Z,4.13
2018-08-16T19:15:27.022Z,4.20
2018-08-16T19:17:54.401Z,3.57
2018-08-16T19:20:21.716Z,3.90
2018-08-16T19:22:49.121Z,3.40
2018-08-16T19:25:16.382Z,4.00
2018-08-16T19:27:43.668Z,3.77
2018-08-16T19:30:11.000Z,6.50
2018-08-16T19:32:38.288Z,4.70
2018-08-16T19:35:05.604Z,4.07
2018-08-16T19:37:32.972Z,3.47
2018-08-16T19:40:00.307Z,4.80
2018-08-16T19:42:27.601Z,5.50
2018-08-16T19:44:55.108Z,3.57
2018-08-16T19:47:22.465Z,4.50
2018-08-16T19:49:49.793Z,4.13
2018-08-16T19:52:17.056Z,4.50
2018-08-16T19:54:44.428Z,5.27
2018-08-16T19:57:11.784Z,5.20
2018-08-16T19:59:39.060Z,4.67
2018-08-16T20:02:06.396Z,4.27
2018-08-16T20:04:33.648Z,4.97
2018-08-16T20:07:01.042Z,4.50
2018-08-16T20:09:28.304Z,4.40
2018-08-16T20:11:55.716Z,4.50
2018-08-16T20:14:23.037Z,4.83
2018-08-16T20:16:50.412Z,4.03
2018-08-16T20:19:17.776Z,5.20
2018-08-16T20:21:45.028Z,4.80
2018-08-16T20:24:12.398Z,4.97
2018-08-16T20:26:39.593Z,5.53
2018-08-16T20:29:06.909Z,4.77
2018-08-16T20:31:34.188Z,4.53
2018-08-16T20:34:01.512Z,4.33
2018-08-16T20:36:28.936Z,4.60
2018-08-16T20:38:56.281Z,4.80
2018-08-16T20:41:23.792Z,4.20
2018-08-16T20:43:51.124Z,4.87
2018-08-16T20:46:18.389Z,4.67
2018-08-16T20:48:45.664Z,4.23
2018-08-16T20:51:13.061Z,4.30
2018-08-16T20:53:40.336Z,4.63
2018-08-16T20:56:07.661Z,4.53
2018-08-16T20:58:34.952Z,3.63
2018-08-16T21:01:02.227Z,4.03
2018-08-16T21:03:29.784Z,3.77
2018-08-16T21:05:57.048Z,4.37
2018-08-16T21:08:24.282Z,4.87
2018-08-16T21:10:51.545Z,5.07
2018-08-16T21:13:18.841Z,4.60
2018-08-16T21:15:46.139Z,3.97
2018-08-16T21:18:13.421Z,4.83
2018-08-16T21:20:40.699Z,4.20
2018-08-16T21:23:08.292Z,5.10
2018-08-16T21:25:35.648Z,4.10
2018-08-16T21:28:02.913Z,5.00
2018-08-16T21:30:30.188Z,4.33
2018-08-16T21:32:57.501Z,4.57
2018-08-16T21:35:24.844Z,4.30
2018-08-16T21:37:52.090Z,4.70
2018-08-16T21:40:19.392Z,4.60
2018-08-16T21:42:46.669Z,4.17
2018-08-16T21:45:13.942Z,4.80
2018-08-16T21:47:41.213Z,4.40
2018-08-16T21:50:08.481Z,4.50
2018-08-16T21:52:35.720Z,4.30
2018-08-16T21:55:03.356Z,4.40
2018-08-16T21:57:30.631Z,4.20
2018-08-16T21:59:57.836Z,4.63
2018-08-16T22:02:25.136Z,4.20
2018-08-16T22:04:52.390Z,4.53
2018-08-16T22:07:32.524Z,4.23
2018-08-16T22:09:59.829Z,4.70
2018-08-16T22:12:27.074Z,4.63
2018-08-16T22:14:54.281Z,4.40
2018-08-16T22:17:21.513Z,5.13
2018-08-16T22:19:48.760Z,4.57
2018-08-16T22:22:16.048Z,4.67
2018-08-16T22:24:43.281Z,4.90
2018-08-16T22:27:10.562Z,4.30
2018-08-16T22:29:37.776Z,4.67
2018-08-16T22:32:05.577Z,3.60
2018-08-16T22:34:32.837Z,4.97
2018-08-16T22:37:00.067Z,4.20
2018-08-16T22:39:27.300Z,4.77
2018-08-16T22:41:54.540Z,3.97
2018-08-16T22:44:21.820Z,4.10
2018-08-16T22:46:49.040Z,4.90
2018-08-16T22:49:16.317Z,4.83
2018-08-16T22:51:43.584Z,4.53
2018-08-16T22:54:10.778Z,4.10
2018-08-16T22:56:38.025Z,4.60
2018-08-16T22:59:05.281Z,4.20
2018-08-16T23:01:32.537Z,5.17
2018-08-16T23:03:59.767Z,3.90
2018-08-16T23:06:27.132Z,4.83
2018-08-16T23:08:54.344Z,4.50
2018-08-16T23:11:21.564Z,4.40
2018-08-16T23:13:48.882Z,4.70
2018-08-16T23:16:16.133Z,4.70
2018-08-16T23:18:43.388Z,4.60
2018-08-16T23:21:10.600Z,4.63
2018-08-16T23:23:37.866Z,4.97
2018-08-16T23:26:05.116Z,5.40
2018-08-16T23:28:32.374Z,3.97
2018-08-16T23:30:59.617Z,4.80
2018-08-16T23:33:26.872Z,4.93
2018-08-16T23:35:54.100Z,4.90
2018-08-16T23:38:21.333Z,5.10
2018-08-16T23:40:48.604Z,4.57
2018-08-16T23:43:15.885Z,5.17
2018-08-16T23:45:43.293Z,5.10
2018-08-16T23:48:22.072Z,5.23
2018-08-16T23:50:49.381Z,5.20
2018-08-16T23:53:16.760Z,5.00
2018-08-16T23:55:44.084Z,4.87
2018-08-16T23:58:11.351Z,5.40
